sensor_id;sensor_type;location;lat;lon;timestamp;P1;durP1;ratioP1;P2;durP2;ratioP2
43861;SDS011;29510;52.140;5.034;2024-01-30T00:02:10;18.27;;;11.63;;
43861;SDS011;29510;52.140;5.034;2024-01-30T00:12:11;18.38;;;11.40;;
43861;SDS011;29510;52.140;5.034;2024-01-30T00:22:12;19.40;;;11.02;;
43861;SDS011;29510;52.140;5.034;2024-01-30T00:32:12;17.88;;;11.63;;
43861;SDS011;29510;52.140;5.034;2024-01-30T00:42:13;16.40;;;11.10;;
43861;SDS011;29510;52.140;5.034;2024-01-30T00:52:13;17.50;;;11.35;;
43861;SDS011;29510;52.140;5.034;2024-01-30T01:02:14;20.20;;;10.65;;
43861;SDS011;29510;52.140;5.034;2024-01-30T01:12:17;21.50;;;11.38;;
43861;SDS011;29510;52.140;5.034;2024-01-30T01:22:17;15.50;;;9.88;;
43861;SDS011;29510;52.140;5.034;2024-01-30T01:32:18;19.03;;;10.87;;
43861;SDS011;29510;52.140;5.034;2024-01-30T01:42:19;15.45;;;10.07;;
43861;SDS011;29510;52.140;5.034;2024-01-30T01:52:20;15.20;;;9.60;;
43861;SDS011;29510;52.140;5.034;2024-01-30T02:02:20;17.67;;;9.90;;
43861;SDS011;29510;52.140;5.034;2024-01-30T02:12:23;15.90;;;10.80;;
43861;SDS011;29510;52.140;5.034;2024-01-30T02:22:24;14.57;;;10.00;;
43861;SDS011;29510;52.140;5.034;2024-01-30T02:32:24;15.20;;;9.43;;
43861;SDS011;29510;52.140;5.034;2024-01-30T02:42:25;16.83;;;10.30;;
43861;SDS011;29510;52.140;5.034;2024-01-30T02:52:26;14.77;;;9.75;;
43861;SDS011;29510;52.140;5.034;2024-01-30T03:02:26;15.52;;;9.85;;
43861;SDS011;29510;52.140;5.034;2024-01-30T03:12:27;12.93;;;9.10;;
43861;SDS011;29510;52.140;5.034;2024-01-30T03:22:27;16.13;;;10.02;;
43861;SDS011;29510;52.140;5.034;2024-01-30T03:32:28;15.50;;;9.98;;
43861;SDS011;29510;52.140;5.034;2024-01-30T03:42:29;15.00;;;9.60;;
43861;SDS011;29510;52.140;5.034;2024-01-30T03:52:29;17.20;;;10.07;;
43861;SDS011;29510;52.140;5.034;2024-01-30T04:02:30;17.63;;;10.43;;
43861;SDS011;29510;52.140;5.034;2024-01-30T04:12:31;16.90;;;10.23;;
43861;SDS011;29510;52.140;5.034;2024-01-30T04:22:31;14.90;;;9.60;;
43861;SDS011;29510;52.140;5.034;2024-01-30T04:32:32;14.70;;;9.95;;
43861;SDS011;29510;52.140;5.034;2024-01-30T04:42:33;14.93;;;9.82;;
43861;SDS011;29510;52.140;5.034;2024-01-30T04:52:33;14.75;;;9.38;;
43861;SDS011;29510;52.140;5.034;2024-01-30T05:02:34;14.20;;;9.43;;
43861;SDS011;29510;52.140;5.034;2024-01-30T05:12:34;15.75;;;9.43;;
43861;SDS011;29510;52.140;5.034;2024-01-30T05:22:35;14.15;;;8.82;;
43861;SDS011;29510;52.140;5.034;2024-01-30T05:32:36;13.55;;;9.18;;
43861;SDS011;29510;52.140;5.034;2024-01-30T05:42:36;14.70;;;9.23;;
43861;SDS011;29510;52.140;5.034;2024-01-30T05:52:37;12.48;;;8.55;;
43861;SDS011;29510;52.140;5.034;2024-01-30T06:02:38;14.75;;;9.35;;
43861;SDS011;29510;52.140;5.034;2024-01-30T06:12:39;14.38;;;8.98;;
43861;SDS011;29510;52.140;5.034;2024-01-30T06:22:40;15.10;;;9.48;;
43861;SDS011;29510;52.140;5.034;2024-01-30T06:32:40;16.95;;;9.25;;
43861;SDS011;29510;52.140;5.034;2024-01-30T06:42:41;14.48;;;9.02;;
43861;SDS011;29510;52.140;5.034;2024-01-30T06:52:41;15.30;;;9.65;;
43861;SDS011;29510;52.140;5.034;2024-01-30T07:02:42;14.25;;;9.50;;
43861;SDS011;29510;52.140;5.034;2024-01-30T07:12:44;16.00;;;10.52;;
43861;SDS011;29510;52.140;5.034;2024-01-30T07:22:45;16.38;;;9.80;;
43861;SDS011;29510;52.140;5.034;2024-01-30T07:32:46;17.90;;;11.77;;
43861;SDS011;29510;52.140;5.034;2024-01-30T07:42:47;16.02;;;10.82;;
43861;SDS011;29510;52.140;5.034;2024-01-30T07:52:48;17.10;;;9.05;;
43861;SDS011;29510;52.140;5.034;2024-01-30T08:02:51;16.88;;;9.00;;
43861;SDS011;29510;52.140;5.034;2024-01-30T08:12:54;16.17;;;10.02;;
43861;SDS011;29510;52.140;5.034;2024-01-30T08:22:54;13.82;;;8.20;;
43861;SDS011;29510;52.140;5.034;2024-01-30T08:32:55;16.57;;;8.67;;
43861;SDS011;29510;52.140;5.034;2024-01-30T08:42:56;16.83;;;8.70;;
43861;SDS011;29510;52.140;5.034;2024-01-30T08:52:56;15.48;;;8.73;;
43861;SDS011;29510;52.140;5.034;2024-01-30T09:02:57;15.47;;;9.97;;
43861;SDS011;29510;52.140;5.034;2024-01-30T09:12:57;19.38;;;10.00;;
43861;SDS011;29510;52.140;5.034;2024-01-30T09:22:58;19.70;;;11.27;;
43861;SDS011;29510;52.140;5.034;2024-01-30T09:32:58;22.63;;;11.80;;
43861;SDS011;29510;52.140;5.034;2024-01-30T09:42:59;93.97;;;28.92;;
43861;SDS011;29510;52.140;5.034;2024-01-30T09:53:00;45.38;;;20.25;;
43861;SDS011;29510;52.140;5.034;2024-01-30T10:03:01;14.48;;;8.90;;
43861;SDS011;29510;52.140;5.034;2024-01-30T10:13:02;17.92;;;8.60;;
43861;SDS011;29510;52.140;5.034;2024-01-30T10:23:03;14.10;;;8.52;;
43861;SDS011;29510;52.140;5.034;2024-01-30T10:33:06;14.13;;;7.40;;
43861;SDS011;29510;52.140;5.034;2024-01-30T10:43:06;13.30;;;6.57;;
43861;SDS011;29510;52.140;5.034;2024-01-30T10:53:10;11.65;;;4.80;;
43861;SDS011;29510;52.140;5.034;2024-01-30T11:03:12;9.60;;;3.88;;
43861;SDS011;29510;52.140;5.034;2024-01-30T11:13:13;13.27;;;2.60;;
43861;SDS011;29510;52.140;5.034;2024-01-30T11:23:16;5.72;;;2.88;;
43861;SDS011;29510;52.140;5.034;2024-01-30T11:33:26;9.02;;;3.70;;
43861;SDS011;29510;52.140;5.034;2024-01-30T11:43:30;4.90;;;2.40;;
43861;SDS011;29510;52.140;5.034;2024-01-30T11:53:30;5.27;;;2.17;;
43861;SDS011;29510;52.140;5.034;2024-01-30T12:03:31;6.20;;;1.70;;
43861;SDS011;29510;52.140;5.034;2024-01-30T12:13:32;5.65;;;1.40;;
43861;SDS011;29510;52.140;5.034;2024-01-30T12:23:33;5.13;;;1.13;;
43861;SDS011;29510;52.140;5.034;2024-01-30T12:33:35;4.78;;;1.13;;
43861;SDS011;29510;52.140;5.034;2024-01-30T12:43:36;5.18;;;1.20;;
43861;SDS011;29510;52.140;5.034;2024-01-30T12:53:37;4.93;;;1.08;;
43861;SDS011;29510;52.140;5.034;2024-01-30T13:03:37;7.20;;;1.03;;
43861;SDS011;29510;52.140;5.034;2024-01-30T13:13:38;5.93;;;1.50;;
43861;SDS011;29510;52.140;5.034;2024-01-30T13:23:39;7.65;;;2.00;;
43861;SDS011;29510;52.140;5.034;2024-01-30T13:33:39;7.00;;;1.70;;
43861;SDS011;29510;52.140;5.034;2024-01-30T13:43:40;5.65;;;1.85;;
43861;SDS011;29510;52.140;5.034;2024-01-30T13:53:41;5.17;;;2.23;;
43861;SDS011;29510;52.140;5.034;2024-01-30T14:03:41;9.13;;;2.50;;
43861;SDS011;29510;52.140;5.034;2024-01-30T14:13:42;4.88;;;2.08;;
43861;SDS011;29510;52.140;5.034;2024-01-30T14:23:43;6.00;;;2.45;;
43861;SDS011;29510;52.140;5.034;2024-01-30T14:33:44;6.70;;;4.00;;
43861;SDS011;29510;52.140;5.034;2024-01-30T14:43:45;5.15;;;2.60;;
43861;SDS011;29510;52.140;5.034;2024-01-30T14:53:45;5.47;;;2.72;;
43861;SDS011;29510;52.140;5.034;2024-01-30T15:03:46;6.78;;;3.15;;
43861;SDS011;29510;52.140;5.034;2024-01-30T15:13:46;8.18;;;4.45;;
43861;SDS011;29510;52.140;5.034;2024-01-30T15:23:47;8.37;;;4.37;;
43861;SDS011;29510;52.140;5.034;2024-01-30T15:33:48;8.52;;;4.43;;
43861;SDS011;29510;52.140;5.034;2024-01-30T15:43:48;7.65;;;5.30;;
43861;SDS011;29510;52.140;5.034;2024-01-30T15:53:49;8.52;;;6.32;;
43861;SDS011;29510;52.140;5.034;2024-01-30T16:03:50;10.88;;;6.18;;
43861;SDS011;29510;52.140;5.034;2024-01-30T16:13:51;9.68;;;5.05;;
43861;SDS011;29510;52.140;5.034;2024-01-30T16:23:52;6.65;;;2.33;;
43861;SDS011;29510;52.140;5.034;2024-01-30T16:33:53;5.35;;;2.50;;
43861;SDS011;29510;52.140;5.034;2024-01-30T16:43:54;8.23;;;2.67;;
43861;SDS011;29510;52.140;5.034;2024-01-30T16:53:55;6.80;;;2.50;;
43861;SDS011;29510;52.140;5.034;2024-01-30T17:03:55;10.93;;;2.72;;
43861;SDS011;29510;52.140;5.034;2024-01-30T17:13:56;8.38;;;2.08;;
43861;SDS011;29510;52.140;5.034;2024-01-30T17:23:56;9.70;;;2.65;;
43861;SDS011;29510;52.140;5.034;2024-01-30T17:33:57;10.57;;;1.85;;
43861;SDS011;29510;52.140;5.034;2024-01-30T17:43:57;9.88;;;1.83;;
43861;SDS011;29510;52.140;5.034;2024-01-30T17:53:58;9.68;;;2.10;;
43861;SDS011;29510;52.140;5.034;2024-01-30T18:03:59;12.88;;;1.98;;
43861;SDS011;29510;52.140;5.034;2024-01-30T18:13:59;24.13;;;2.37;;
43861;SDS011;29510;52.140;5.034;2024-01-30T18:24:00;10.70;;;2.10;;
43861;SDS011;29510;52.140;5.034;2024-01-30T18:34:01;12.15;;;1.75;;
43861;SDS011;29510;52.140;5.034;2024-01-30T18:44:02;11.48;;;2.22;;
43861;SDS011;29510;52.140;5.034;2024-01-30T18:54:02;14.02;;;1.58;;
43861;SDS011;29510;52.140;5.034;2024-01-30T19:04:03;17.25;;;2.88;;
43861;SDS011;29510;52.140;5.034;2024-01-30T19:14:04;13.50;;;2.10;;
43861;SDS011;29510;52.140;5.034;2024-01-30T19:24:05;18.30;;;1.73;;
43861;SDS011;29510;52.140;5.034;2024-01-30T19:34:06;16.10;;;1.92;;
43861;SDS011;29510;52.140;5.034;2024-01-30T19:44:07;10.60;;;1.65;;
43861;SDS011;29510;52.140;5.034;2024-01-30T19:54:11;14.43;;;1.70;;
43861;SDS011;29510;52.140;5.034;2024-01-30T20:04:17;12.30;;;1.45;;
43861;SDS011;29510;52.140;5.034;2024-01-30T20:14:18;6.38;;;1.02;;
43861;SDS011;29510;52.140;5.034;2024-01-30T20:24:18;6.28;;;1.25;;
43861;SDS011;29510;52.140;5.034;2024-01-30T20:34:19;10.07;;;1.20;;
43861;SDS011;29510;52.140;5.034;2024-01-30T20:44:19;7.38;;;1.38;;
43861;SDS011;29510;52.140;5.034;2024-01-30T20:54:20;8.38;;;1.73;;
43861;SDS011;29510;52.140;5.034;2024-01-30T21:04:21;10.90;;;1.53;;
43861;SDS011;29510;52.140;5.034;2024-01-30T21:14:22;8.63;;;1.50;;
43861;SDS011;29510;52.140;5.034;2024-01-30T21:24:22;7.30;;;1.70;;
43861;SDS011;29510;52.140;5.034;2024-01-30T21:34:23;11.95;;;3.42;;
43861;SDS011;29510;52.140;5.034;2024-01-30T21:44:23;9.90;;;2.95;;
43861;SDS011;29510;52.140;5.034;2024-01-30T21:54:24;11.82;;;2.33;;
43861;SDS011;29510;52.140;5.034;2024-01-30T22:04:25;10.13;;;2.35;;
43861;SDS011;29510;52.140;5.034;2024-01-30T22:14:26;10.43;;;2.63;;
43861;SDS011;29510;52.140;5.034;2024-01-30T22:24:26;8.40;;;2.55;;
43861;SDS011;29510;52.140;5.034;2024-01-30T22:34:27;4.97;;;2.08;;
43861;SDS011;29510;52.140;5.034;2024-01-30T22:44:28;6.18;;;1.42;;
43861;SDS011;29510;52.140;5.034;2024-01-30T22:54:28;3.50;;;1.23;;
43861;SDS011;29510;52.140;5.034;2024-01-30T23:04:29;3.92;;;0.98;;
43861;SDS011;29510;52.140;5.034;2024-01-30T23:14:29;4.70;;;1.60;;
43861;SDS011;29510;52.140;5.034;2024-01-30T23:24:30;6.17;;;1.40;;
43861;SDS011;29510;52.140;5.034;2024-01-30T23:34:31;5.82;;;1.38;;
43861;SDS011;29510;52.140;5.034;2024-01-30T23:44:32;3.85;;;1.35;;
43861;SDS011;29510;52.140;5.034;2024-01-30T23:54:32;4.65;;;0.93;;
